createdAt,value
2018-03-15T00:00:09.300Z,37.58
2018-03-15T00:01:09.291Z,37.65
2018-03-15T00:02:09.281Z,37.62
2018-03-15T00:03:09.279Z,37.58
2018-03-15T00:04:09.265Z,37.67
2018-03-15T00:05:09.299Z,37.65
2018-03-15T00:06:09.238Z,37.67
2018-03-15T00:07:09.293Z,37.58
2018-03-15T00:08:09.286Z,37.63
2018-03-15T00:09:09.273Z,37.57
2018-03-15T00:10:09.281Z,37.65
2018-03-15T00:11:09.275Z,37.62
2018-03-15T00:12:09.247Z,37.67
2018-03-15T00:13:09.242Z,37.65
2018-03-15T00:14:09.419Z,37.62
2018-03-15T00:15:09.246Z,37.61
2018-03-15T00:16:09.242Z,37.57
2018-03-15T00:17:09.276Z,37.57
2018-03-15T00:18:09.243Z,37.61
2018-03-15T00:19:09.273Z,37.63
2018-03-15T00:20:09.309Z,37.69
2018-03-15T00:21:09.247Z,37.57
2018-03-15T00:22:09.241Z,37.63
2018-03-15T00:23:09.290Z,37.6
2018-03-15T00:24:09.240Z,37.6
2018-03-15T00:25:09.371Z,37.69
2018-03-15T00:26:09.371Z,37.6
2018-03-15T00:27:09.274Z,37.53
2018-03-15T00:28:09.267Z,37.58
2018-03-15T00:29:09.274Z,37.55
2018-03-15T00:30:09.254Z,37.56
2018-03-15T00:31:09.232Z,37.61
2018-03-15T00:32:09.228Z,37.55
2018-03-15T00:33:09.239Z,37.54
2018-03-15T00:34:09.251Z,37.62
2018-03-15T00:35:09.284Z,37.64
2018-03-15T00:36:09.236Z,37.6
2018-03-15T00:37:09.243Z,37.61
2018-03-15T00:38:09.438Z,37.6
2018-03-15T00:39:09.233Z,37.67
2018-03-15T00:40:09.275Z,37.7
2018-03-15T00:41:09.288Z,37.62
2018-03-15T00:42:09.251Z,37.57
2018-03-15T00:43:09.251Z,37.61
2018-03-15T00:44:09.266Z,37.66
2018-03-15T00:45:09.239Z,37.57
2018-03-15T00:46:09.240Z,37.67
2018-03-15T00:47:09.286Z,37.6
2018-03-15T00:48:09.245Z,37.61
2018-03-15T00:49:09.244Z,37.58
2018-03-15T00:50:09.266Z,37.59
2018-03-15T00:51:09.262Z,37.67
2018-03-15T00:52:09.252Z,37.39
2018-03-15T00:53:09.257Z,37.62
2018-03-15T00:54:09.231Z,37.61
2018-03-15T00:55:09.273Z,37.54
2018-03-15T00:56:09.297Z,37.64
2018-03-15T00:57:09.254Z,37.58
2018-03-15T00:58:09.224Z,37.63
2018-03-15T00:59:09.290Z,37.56
2018-03-15T01:00:09.243Z,37.68
2018-03-15T01:01:09.260Z,37.62
2018-03-15T01:02:09.402Z,37.7
2018-03-15T01:03:09.224Z,37.51
2018-03-15T01:04:09.247Z,37.59
2018-03-15T01:05:09.272Z,37.64
2018-03-15T01:06:09.232Z,37.63
2018-03-15T01:07:09.262Z,37.6
2018-03-15T01:08:09.239Z,37.64
2018-03-15T01:09:09.243Z,37.62
2018-03-15T01:10:09.255Z,37.72
2018-03-15T01:11:09.262Z,37.61
2018-03-15T01:12:09.289Z,37.62
2018-03-15T01:13:09.274Z,37.51
2018-03-15T01:14:09.282Z,37.62
2018-03-15T01:15:09.315Z,37.54
2018-03-15T01:16:09.260Z,37.55
2018-03-15T01:17:09.266Z,37.58
2018-03-15T01:18:09.290Z,37.5
2018-03-15T01:19:09.251Z,37.57
2018-03-15T01:20:09.287Z,37.5
2018-03-15T01:21:09.231Z,37.5
2018-03-15T01:22:09.257Z,37.78
2018-03-15T01:23:09.268Z,37.62
2018-03-15T01:24:09.226Z,37.54
2018-03-15T01:25:09.294Z,37.65
2018-03-15T01:26:09.314Z,37.56
2018-03-15T01:27:09.226Z,37.67
2018-03-15T01:28:09.230Z,37.61
2018-03-15T01:29:09.274Z,37.65
2018-03-15T01:30:09.230Z,37.59
2018-03-15T01:31:09.217Z,37.65
2018-03-15T01:32:09.274Z,37.64
2018-03-15T01:33:09.241Z,37.67
2018-03-15T01:34:09.232Z,37.57
2018-03-15T01:35:09.255Z,37.63
2018-03-15T01:36:09.252Z,37.68
2018-03-15T01:37:09.243Z,37.59
2018-03-15T01:38:09.278Z,37.67
2018-03-15T01:39:09.513Z,37.63
2018-03-15T01:40:09.246Z,37.67
2018-03-15T01:41:09.247Z,37.66
2018-03-15T01:42:09.218Z,37.66
2018-03-15T01:43:09.246Z,37.65
2018-03-15T01:44:09.290Z,37.67
2018-03-15T01:45:09.218Z,37.62
2018-03-15T01:46:09.239Z,37.73
2018-03-15T01:47:09.244Z,37.62
2018-03-15T01:48:09.222Z,37.54
2018-03-15T01:49:09.212Z,37.67
2018-03-15T01:50:09.254Z,37.66
2018-03-15T01:51:09.233Z,37.64
2018-03-15T01:52:09.211Z,37.69
2018-03-15T01:53:09.242Z,37.7
2018-03-15T01:54:09.216Z,37.61
2018-03-15T01:55:09.234Z,37.69
2018-03-15T01:56:09.240Z,37.62
2018-03-15T01:57:09.238Z,37.63
2018-03-15T01:58:09.215Z,37.67
2018-03-15T01:59:09.270Z,37.73
2018-03-15T02:00:09.236Z,37.66
2018-03-15T02:01:09.219Z,37.7
2018-03-15T02:02:09.245Z,37.59
2018-03-15T02:03:09.209Z,37.54
2018-03-15T02:04:09.208Z,37.59
2018-03-15T02:05:09.270Z,37.66
2018-03-15T02:06:09.203Z,37.71
2018-03-15T02:07:09.555Z,37.68
2018-03-15T02:08:09.237Z,37.71
2018-03-15T02:09:09.208Z,37.57
2018-03-15T02:10:09.208Z,37.75
2018-03-15T02:11:09.232Z,37.67
2018-03-15T02:12:09.248Z,37.67
2018-03-15T02:13:09.202Z,37.73
2018-03-15T02:14:09.278Z,37.71
2018-03-15T02:15:09.202Z,37.7
2018-03-15T02:16:09.211Z,37.7
2018-03-15T02:17:09.232Z,37.63
2018-03-15T02:18:09.293Z,37.61
2018-03-15T02:19:09.212Z,37.75
2018-03-15T02:20:09.234Z,37.76
2018-03-15T02:21:09.194Z,37.69
2018-03-15T02:22:09.234Z,37.78
2018-03-15T02:23:09.251Z,37.67
2018-03-15T02:24:09.222Z,37.66
2018-03-15T02:25:09.227Z,37.57
2018-03-15T02:26:09.344Z,37.63
2018-03-15T02:27:09.308Z,37.59
2018-03-15T02:28:09.206Z,37.56
2018-03-15T02:29:09.239Z,37.63
2018-03-15T02:30:09.218Z,37.63
2018-03-15T02:31:09.214Z,37.62
2018-03-15T02:32:09.248Z,37.63
2018-03-15T02:33:09.207Z,37.54
2018-03-15T02:34:09.218Z,37.55
2018-03-15T02:35:09.260Z,37.67
2018-03-15T02:36:09.218Z,37.63
2018-03-15T02:37:09.214Z,37.75
2018-03-15T02:38:09.249Z,37.58
2018-03-15T02:39:09.197Z,37.62
2018-03-15T02:40:09.186Z,37.54
2018-03-15T02:41:09.283Z,37.52
2018-03-15T02:42:09.207Z,37.52
2018-03-15T02:43:09.235Z,37.53
2018-03-15T02:44:09.241Z,37.61
2018-03-15T02:45:09.203Z,37.66
2018-03-15T02:46:09.202Z,37.58
2018-03-15T02:47:09.221Z,37.67
2018-03-15T02:48:09.202Z,37.59
2018-03-15T02:49:09.196Z,37.54
2018-03-15T02:50:09.240Z,37.52
2018-03-15T02:51:09.184Z,37.52
2018-03-15T02:52:09.226Z,37.6
2018-03-15T02:53:09.250Z,37.64
2018-03-15T02:54:09.207Z,37.62
2018-03-15T02:55:09.193Z,37.55
2018-03-15T02:56:09.258Z,37.61
2018-03-15T02:57:09.221Z,37.67
2018-03-15T02:58:09.243Z,37.64
2018-03-15T02:59:09.231Z,37.72
2018-03-15T03:00:09.201Z,37.52
2018-03-15T03:01:09.193Z,37.63
2018-03-15T03:02:09.242Z,37.59
2018-03-15T03:03:09.442Z,37.64
2018-03-15T03:04:09.202Z,37.57
2018-03-15T03:05:09.229Z,37.64
2018-03-15T03:06:09.206Z,37.65
2018-03-15T03:07:09.209Z,37.64
2018-03-15T03:08:09.253Z,37.6
2018-03-15T03:09:09.200Z,37.61
2018-03-15T03:10:09.186Z,37.65
2018-03-15T03:11:09.224Z,37.6
2018-03-15T03:12:09.185Z,37.67
2018-03-15T03:13:09.194Z,37.59
2018-03-15T03:14:09.222Z,37.58
2018-03-15T03:15:09.202Z,37.53
2018-03-15T03:16:09.186Z,37.57
2018-03-15T03:17:09.234Z,37.69
2018-03-15T03:18:09.192Z,37.64
2018-03-15T03:19:09.211Z,37.61
2018-03-15T03:20:09.245Z,37.61
2018-03-15T03:21:09.195Z,37.58
2018-03-15T03:22:09.218Z,37.69
2018-03-15T03:23:09.209Z,37.69
2018-03-15T03:24:09.185Z,37.64
2018-03-15T03:25:09.185Z,37.78
2018-03-15T03:26:09.229Z,37.64
2018-03-15T03:27:09.209Z,37.59
2018-03-15T03:28:09.283Z,37.61
2018-03-15T03:29:09.239Z,37.65
2018-03-15T03:30:09.182Z,37.58
2018-03-15T03:31:09.188Z,37.6
2018-03-15T03:32:09.210Z,37.6
2018-03-15T03:33:09.193Z,37.54
2018-03-15T03:34:09.216Z,37.61
2018-03-15T03:35:09.250Z,37.6
2018-03-15T03:36:09.187Z,37.52
2018-03-15T03:37:09.205Z,37.58
2018-03-15T03:38:09.219Z,37.58
2018-03-15T03:39:09.213Z,37.62
2018-03-15T03:40:09.180Z,37.65
2018-03-15T03:41:09.223Z,37.56
2018-03-15T03:42:09.224Z,37.69
2018-03-15T03:43:09.180Z,37.65
2018-03-15T03:44:09.208Z,37.64
2018-03-15T03:45:09.243Z,37.6
2018-03-15T03:46:09.224Z,37.65
2018-03-15T03:47:09.210Z,37.57
2018-03-15T03:48:09.170Z,37.59
2018-03-15T03:49:09.173Z,37.57
2018-03-15T03:50:09.258Z,37.64
2018-03-15T03:51:09.180Z,37.55
2018-03-15T03:52:09.199Z,37.6
2018-03-15T03:53:09.194Z,37.71
2018-03-15T03:54:09.199Z,37.82
2018-03-15T03:55:09.182Z,37.62
2018-03-15T03:56:09.254Z,37.66
2018-03-15T03:57:09.186Z,37.6
2018-03-15T03:58:09.173Z,37.62
2018-03-15T03:59:09.252Z,37.64
2018-03-15T04:00:09.187Z,37.59
2018-03-15T04:01:09.208Z,37.63
2018-03-15T04:02:09.231Z,37.7
2018-03-15T04:03:09.173Z,37.77
2018-03-15T04:04:09.169Z,37.66
2018-03-15T04:05:09.256Z,37.68
2018-03-15T04:06:09.179Z,37.61
2018-03-15T04:07:09.162Z,37.62
2018-03-15T04:08:09.227Z,37.57
2018-03-15T04:09:09.194Z,37.62
2018-03-15T04:10:09.185Z,37.7
2018-03-15T04:11:09.216Z,37.66
2018-03-15T04:12:09.182Z,37.6
2018-03-15T04:13:09.189Z,37.58
2018-03-15T04:14:09.195Z,37.72
2018-03-15T04:15:09.173Z,37.62
2018-03-15T04:16:09.198Z,37.65
2018-03-15T04:17:09.213Z,37.62
2018-03-15T04:18:09.166Z,37.58
2018-03-15T04:19:09.218Z,37.64
2018-03-15T04:20:09.194Z,37.63
2018-03-15T04:21:09.183Z,37.62
2018-03-15T04:22:09.190Z,37.65
2018-03-15T04:23:09.193Z,37.71
2018-03-15T04:24:09.190Z,37.66
2018-03-15T04:25:09.178Z,37.63
2018-03-15T04:26:09.231Z,37.72
2018-03-15T04:27:09.264Z,37.63
2018-03-15T04:28:09.275Z,37.68
2018-03-15T04:29:09.188Z,37.67
2018-03-15T04:30:09.166Z,37.64
2018-03-15T04:31:09.166Z,37.69
2018-03-15T04:32:09.204Z,37.66
2018-03-15T04:33:09.185Z,37.65
2018-03-15T04:34:09.153Z,37.66
2018-03-15T04:35:09.197Z,37.59
2018-03-15T04:36:09.162Z,37.57
2018-03-15T04:37:09.161Z,37.57
2018-03-15T04:38:09.210Z,37.66
2018-03-15T04:39:09.148Z,37.64
2018-03-15T04:40:09.165Z,37.64
2018-03-15T04:41:09.204Z,37.56
2018-03-15T04:42:09.173Z,37.64
2018-03-15T04:43:09.190Z,37.67
2018-03-15T04:44:09.203Z,37.67
2018-03-15T04:45:09.184Z,37.61
2018-03-15T04:46:09.161Z,37.63
2018-03-15T04:47:09.189Z,37.56
2018-03-15T04:48:09.157Z,37.5
2018-03-15T04:49:09.190Z,37.56
2018-03-15T04:50:09.197Z,37.57
2018-03-15T04:51:09.167Z,37.6
2018-03-15T04:52:09.182Z,37.58
2018-03-15T04:53:09.192Z,37.59
2018-03-15T04:54:09.148Z,37.49
2018-03-15T04:55:09.179Z,37.61
2018-03-15T04:56:09.201Z,37.57
2018-03-15T04:57:09.182Z,37.62
2018-03-15T04:58:09.150Z,37.59
2018-03-15T04:59:09.176Z,37.65
2018-03-15T05:00:09.162Z,37.63
2018-03-15T05:01:09.174Z,37.8
2018-03-15T05:02:09.200Z,37.74
2018-03-15T05:03:09.151Z,37.79
2018-03-15T05:04:09.152Z,37.75
2018-03-15T05:05:09.197Z,37.84
2018-03-15T05:06:09.386Z,37.63
2018-03-15T05:07:09.171Z,37.7
2018-03-15T05:08:09.193Z,37.81
2018-03-15T05:09:09.144Z,37.79
2018-03-15T05:10:09.152Z,37.78
2018-03-15T05:11:09.194Z,37.81
2018-03-15T05:12:09.156Z,37.64
2018-03-15T05:13:09.140Z,37.68
2018-03-15T05:14:09.188Z,37.66
2018-03-15T05:15:09.149Z,37.63
2018-03-15T05:16:09.164Z,37.59
2018-03-15T05:17:09.204Z,37.63
2018-03-15T05:18:09.152Z,37.51
2018-03-15T05:19:09.142Z,37.5
2018-03-15T05:20:09.179Z,37.51
2018-03-15T05:21:09.280Z,37.43
2018-03-15T05:22:09.188Z,37.47
2018-03-15T05:23:09.201Z,37.37
2018-03-15T05:24:09.151Z,37.39
2018-03-15T05:25:09.270Z,37.37
2018-03-15T05:26:09.207Z,37.33
2018-03-15T05:27:09.144Z,37.38
2018-03-15T05:28:09.168Z,37.32
2018-03-15T05:29:09.182Z,37.24
2018-03-15T05:30:09.143Z,37.24
2018-03-15T05:31:09.270Z,37.25
2018-03-15T05:32:09.176Z,37.27
2018-03-15T05:33:09.178Z,37.25
2018-03-15T05:34:09.140Z,37.27
2018-03-15T05:35:09.194Z,37.24
2018-03-15T05:36:09.137Z,37.3
2018-03-15T05:37:09.164Z,37.36
2018-03-15T05:38:09.185Z,37.25
2018-03-15T05:39:09.141Z,37.19
2018-03-15T05:40:09.181Z,37.27
2018-03-15T05:41:09.211Z,37.33
2018-03-15T05:42:09.132Z,37.33
2018-03-15T05:43:09.144Z,37.32
2018-03-15T05:44:09.184Z,37.4
2018-03-15T05:45:09.143Z,37.42
2018-03-15T05:46:09.163Z,37.21
2018-03-15T05:47:09.185Z,37.28
2018-03-15T05:48:09.135Z,37.3
2018-03-15T05:49:09.144Z,37.32
2018-03-15T05:50:09.168Z,37.3
2018-03-15T05:51:09.173Z,37.41
2018-03-15T05:52:09.135Z,37.29
2018-03-15T05:53:09.210Z,37.34
2018-03-15T05:54:09.181Z,37.3
2018-03-15T05:55:09.133Z,37.39
2018-03-15T05:56:09.159Z,37.29
2018-03-15T05:57:09.141Z,37.31
2018-03-15T05:58:09.133Z,37.47
2018-03-15T05:59:09.158Z,37.43
2018-03-15T06:00:09.133Z,37.5
2018-03-15T06:01:09.136Z,36.6
2018-03-15T06:02:09.173Z,37.11
2018-03-15T06:03:09.162Z,37.31
2018-03-15T06:04:09.134Z,37.36
2018-03-15T06:05:09.158Z,37.27
2018-03-15T06:06:09.141Z,37.33
2018-03-15T06:07:09.124Z,37.23
2018-03-15T06:08:09.175Z,37.25
2018-03-15T06:09:09.153Z,37.29
2018-03-15T06:10:09.151Z,37.26
2018-03-15T06:11:09.172Z,37.23
2018-03-15T06:12:09.177Z,37.24
2018-03-15T06:13:09.122Z,37.22
2018-03-15T06:14:09.195Z,37.19
2018-03-15T06:15:09.171Z,37.27
2018-03-15T06:16:09.137Z,37.27
2018-03-15T06:17:09.189Z,37.23
2018-03-15T06:18:09.127Z,37.26
2018-03-15T06:19:09.129Z,37.27
2018-03-15T06:20:09.180Z,37.19
2018-03-15T06:21:09.123Z,37.14
2018-03-15T06:22:09.137Z,37.28
2018-03-15T06:23:09.161Z,37.19
2018-03-15T06:24:09.115Z,37.24
2018-03-15T06:25:09.159Z,37.15
2018-03-15T06:26:09.159Z,37.15
2018-03-15T06:27:09.202Z,37.2
2018-03-15T06:28:09.222Z,37.21
2018-03-15T06:29:09.258Z,37.17
2018-03-15T06:30:09.130Z,37.25
2018-03-15T06:31:09.159Z,37.19
2018-03-15T06:32:09.161Z,37.15
2018-03-15T06:33:09.121Z,37.15
2018-03-15T06:34:09.151Z,37.14
2018-03-15T06:35:09.142Z,37.16
2018-03-15T06:36:09.121Z,37.22
2018-03-15T06:37:09.119Z,37.27
2018-03-15T06:38:09.160Z,37.13
2018-03-15T06:39:09.113Z,37.16
2018-03-15T06:40:09.183Z,37.19
2018-03-15T06:41:09.146Z,37.21
2018-03-15T06:42:09.151Z,37.13
2018-03-15T06:43:09.146Z,37.11
2018-03-15T06:44:09.152Z,37.15
2018-03-15T06:45:09.126Z,37.15
2018-03-15T06:46:09.149Z,37.14
2018-03-15T06:47:09.178Z,37.23
2018-03-15T06:48:09.138Z,37.15
2018-03-15T06:49:09.118Z,37.17
2018-03-15T06:50:09.148Z,37.17
2018-03-15T06:51:09.127Z,37.12
2018-03-15T06:52:09.231Z,37.1
2018-03-15T06:53:09.164Z,37.17
2018-03-15T06:54:09.136Z,37.07
2018-03-15T06:55:09.115Z,37.13
2018-03-15T06:56:09.135Z,37.17
2018-03-15T06:57:09.123Z,37.07
2018-03-15T06:58:09.149Z,37.07
2018-03-15T06:59:09.149Z,37.13
2018-03-15T07:00:09.117Z,37.15
2018-03-15T07:01:09.114Z,37.08
2018-03-15T07:02:09.173Z,37.09
2018-03-15T07:03:09.108Z,37
2018-03-15T07:04:09.118Z,37.06
2018-03-15T07:05:09.134Z,37.09
2018-03-15T07:06:09.109Z,36.97
2018-03-15T07:07:09.137Z,37.1
2018-03-15T07:08:09.149Z,37.02
2018-03-15T07:09:09.113Z,37.07
2018-03-15T07:10:09.146Z,37.09
2018-03-15T07:11:09.156Z,37.07
2018-03-15T07:12:09.122Z,37.03
2018-03-15T07:13:09.172Z,37.03
2018-03-15T07:14:09.142Z,37.05
2018-03-15T07:15:09.112Z,37.05
2018-03-15T07:16:09.111Z,37.02
2018-03-15T07:17:09.171Z,37.03
2018-03-15T07:18:09.140Z,37.06
2018-03-15T07:19:09.118Z,37.03
2018-03-15T07:20:09.148Z,37.03
2018-03-15T07:21:09.114Z,37.01
2018-03-15T07:22:09.163Z,37.08
2018-03-15T07:23:09.140Z,37.04
2018-03-15T07:24:09.107Z,36.99
2018-03-15T07:25:09.121Z,37.01
2018-03-15T07:26:09.128Z,37.04
2018-03-15T07:27:09.145Z,36.94
2018-03-15T07:28:09.117Z,36.98
2018-03-15T07:29:09.174Z,36.99
2018-03-15T07:30:09.103Z,36.95
2018-03-15T07:31:09.108Z,36.98
2018-03-15T07:32:09.192Z,37.03
2018-03-15T07:33:09.103Z,36.97
2018-03-15T07:34:09.125Z,37
2018-03-15T07:35:09.144Z,36.99
2018-03-15T07:36:09.108Z,36.94
2018-03-15T07:37:09.103Z,36.99
2018-03-15T07:38:09.145Z,36.93
2018-03-15T07:39:09.179Z,36.94
2018-03-15T07:40:09.101Z,36.96
2018-03-15T07:41:09.153Z,36.95
2018-03-15T07:42:09.080Z,36.95
2018-03-15T07:43:09.112Z,36.96
2018-03-15T07:44:09.154Z,37
2018-03-15T07:45:09.095Z,36.94
2018-03-15T07:46:09.138Z,36.95
2018-03-15T07:47:09.170Z,36.94
2018-03-15T07:48:09.090Z,36.93
2018-03-15T07:49:09.107Z,36.94
2018-03-15T07:50:09.166Z,36.95
2018-03-15T07:51:09.151Z,36.86
2018-03-15T07:52:09.123Z,36.92
2018-03-15T07:53:09.133Z,36.99
2018-03-15T07:54:09.127Z,36.92
2018-03-15T07:55:09.092Z,36.98
2018-03-15T07:56:09.132Z,37
2018-03-15T07:57:09.093Z,36.9
2018-03-15T07:58:09.107Z,36.92
2018-03-15T07:59:09.150Z,36.88
2018-03-15T08:00:09.096Z,36.86
2018-03-15T08:01:09.095Z,36.95
2018-03-15T08:02:09.140Z,36.96
2018-03-15T08:03:09.090Z,36.88
2018-03-15T08:04:09.090Z,36.93
2018-03-15T08:05:09.148Z,36.97
2018-03-15T08:06:09.114Z,36.92
2018-03-15T08:07:09.088Z,36.92
2018-03-15T08:08:09.149Z,36.98
2018-03-15T08:09:09.118Z,36.89
2018-03-15T08:10:09.092Z,36.91
2018-03-15T08:11:09.142Z,36.89
2018-03-15T08:12:09.104Z,36.86
2018-03-15T08:13:09.115Z,36.82
2018-03-15T08:14:09.122Z,36.89
2018-03-15T08:15:09.091Z,36.83
2018-03-15T08:16:09.094Z,36.86
2018-03-15T08:17:09.116Z,36.94
2018-03-15T08:18:09.091Z,36.81
2018-03-15T08:19:09.120Z,37.05
2018-03-15T08:20:09.153Z,36.88
2018-03-15T08:21:09.092Z,36.83
2018-03-15T08:22:09.117Z,36.4
2018-03-15T08:23:09.144Z,36.56
2018-03-15T08:24:09.110Z,36.32
2018-03-15T08:25:09.114Z,36.24
2018-03-15T08:26:09.118Z,36.36
2018-03-15T08:27:09.074Z,36.22
2018-03-15T08:28:09.112Z,36.18
2018-03-15T08:29:09.284Z,36.14
2018-03-15T08:30:09.205Z,36.36
2018-03-15T08:31:09.136Z,36.2
2018-03-15T08:32:09.110Z,36.21
2018-03-15T08:33:09.116Z,36.54
2018-03-15T08:34:09.091Z,36.16
2018-03-15T08:35:09.140Z,36.3
2018-03-15T08:36:09.118Z,36.29
2018-03-15T08:37:09.082Z,36.26
2018-03-15T08:38:09.119Z,36.19
2018-03-15T08:39:09.104Z,36.3
2018-03-15T08:40:09.083Z,36.16
2018-03-15T08:41:09.119Z,36.12
2018-03-15T08:42:09.119Z,36.14
2018-03-15T08:43:09.090Z,36.14
2018-03-15T08:44:09.111Z,36.1
2018-03-15T08:45:09.077Z,36.31
2018-03-15T08:46:09.088Z,36.11
2018-03-15T08:47:09.320Z,36.02
2018-03-15T08:48:09.086Z,36.2
2018-03-15T08:49:09.105Z,35.96
2018-03-15T08:50:09.126Z,35.93
2018-03-15T08:51:09.112Z,36.19
2018-03-15T08:52:09.147Z,35.96
2018-03-15T08:53:09.146Z,36.33
2018-03-15T08:54:09.087Z,36.14
2018-03-15T08:55:09.113Z,35.91
2018-03-15T08:56:09.114Z,35.92
2018-03-15T08:57:09.134Z,36.45
2018-03-15T08:58:09.101Z,35.72
2018-03-15T08:59:09.103Z,36.22
2018-03-15T09:00:09.102Z,36.11
2018-03-15T09:01:09.077Z,35.96
2018-03-15T09:02:09.190Z,36.09
2018-03-15T09:03:09.080Z,36.31
2018-03-15T09:04:09.071Z,36.31
2018-03-15T09:05:09.107Z,36.46
2018-03-15T09:06:09.069Z,36.47
2018-03-15T09:07:09.069Z,36.45
2018-03-15T09:08:09.145Z,36.5
2018-03-15T09:09:09.076Z,36.49
2018-03-15T09:10:09.075Z,36.53
2018-03-15T09:11:09.109Z,36.6
2018-03-15T09:12:09.074Z,36.5
2018-03-15T09:13:09.098Z,36.58
2018-03-15T09:14:09.112Z,36.55
2018-03-15T09:15:09.082Z,36.49
2018-03-15T09:16:09.079Z,36.46
2018-03-15T09:17:09.096Z,36.46
2018-03-15T09:18:09.073Z,36.42
2018-03-15T09:19:09.076Z,36.5
2018-03-15T09:20:09.116Z,36.49
2018-03-15T09:21:09.083Z,36.47
2018-03-15T09:22:09.096Z,36.44
2018-03-15T09:23:09.275Z,36.49
2018-03-15T09:24:09.080Z,36.42
2018-03-15T09:25:09.066Z,36.45
2018-03-15T09:26:09.128Z,36.56
2018-03-15T09:27:09.098Z,36.43
2018-03-15T09:28:09.073Z,36.54
2018-03-15T09:29:09.090Z,36.51
2018-03-15T09:30:09.079Z,36.5
2018-03-15T09:31:09.087Z,36.48
2018-03-15T09:32:09.107Z,36.54
2018-03-15T09:33:09.089Z,36.47
2018-03-15T09:34:09.106Z,36.48
2018-03-15T09:35:09.099Z,36.56
2018-03-15T09:36:09.536Z,36.51
2018-03-15T09:37:09.083Z,36.5
2018-03-15T09:38:09.134Z,36.65
2018-03-15T09:39:09.081Z,36.54
2018-03-15T09:40:09.068Z,36.56
2018-03-15T09:41:09.164Z,36.57
2018-03-15T09:42:09.181Z,36.54
2018-03-15T09:43:09.090Z,36.61
2018-03-15T09:44:10.018Z,36.63
2018-03-15T09:45:09.110Z,36.6
2018-03-15T09:46:09.245Z,36.64
2018-03-15T09:47:09.119Z,36.58
2018-03-15T09:48:09.090Z,36.58
2018-03-15T09:49:09.070Z,36.56
2018-03-15T09:50:09.108Z,36.59
2018-03-15T09:51:09.104Z,36.54
2018-03-15T09:52:10.127Z,36.56
2018-03-15T09:53:09.120Z,36.6
2018-03-15T09:54:09.119Z,36.59
2018-03-15T09:55:09.094Z,36.51
2018-03-15T09:56:09.111Z,36.62
2018-03-15T09:57:09.067Z,36.53
2018-03-15T09:58:09.093Z,36.58
2018-03-15T09:59:09.689Z,36.61
2018-03-15T10:00:09.127Z,36.55
2018-03-15T10:01:09.102Z,36.62
2018-03-15T10:02:09.114Z,36.58
2018-03-15T10:03:09.058Z,36.54
2018-03-15T10:04:09.075Z,36.62
2018-03-15T10:05:09.113Z,36.68
2018-03-15T10:06:09.085Z,36.56
2018-03-15T10:07:09.303Z,36.61
2018-03-15T10:08:09.136Z,36.65
2018-03-15T10:09:09.068Z,36.55
2018-03-15T10:10:09.070Z,36.57
2018-03-15T10:11:09.092Z,36.6
2018-03-15T10:12:09.060Z,36.56
2018-03-15T10:13:09.055Z,36.61
2018-03-15T10:14:09.958Z,36.69
2018-03-15T10:15:09.090Z,36.57
2018-03-15T10:16:09.074Z,36.54
2018-03-15T10:17:09.125Z,36.6
2018-03-15T10:18:09.088Z,36.61
2018-03-15T10:19:09.068Z,36.6
2018-03-15T10:20:09.101Z,36.63
2018-03-15T10:21:09.762Z,36.55
2018-03-15T10:22:09.082Z,36.59
2018-03-15T10:23:09.101Z,36.62
2018-03-15T10:24:09.102Z,36.59
2018-03-15T10:25:26.671Z,36.6
2018-03-15T10:26:09.102Z,36.62
2018-03-15T10:27:09.064Z,36.57
2018-03-15T10:28:09.059Z,36.62
2018-03-15T10:29:10.060Z,36.63
2018-03-15T10:30:12.729Z,36.56
2018-03-15T10:31:09.234Z,36.61
2018-03-15T10:32:09.155Z,36.59
2018-03-15T10:33:09.162Z,36.56
2018-03-15T10:34:09.327Z,36.58
2018-03-15T10:35:09.137Z,36.61
2018-03-15T10:36:09.981Z,36.59
2018-03-15T10:37:09.112Z,36.64
2018-03-15T10:38:09.130Z,36.63
2018-03-15T10:39:09.147Z,36.55
2018-03-15T10:40:09.148Z,36.68
2018-03-15T10:41:09.141Z,36.66
2018-03-15T10:42:09.146Z,36.6
2018-03-15T10:43:09.133Z,36.64
2018-03-15T10:44:09.986Z,36.66
2018-03-15T10:45:09.131Z,36.59
2018-03-15T10:46:09.140Z,36.66
2018-03-15T10:47:09.123Z,36.67
2018-03-15T10:48:09.182Z,36.6
2018-03-15T10:49:09.154Z,36.66
2018-03-15T10:50:09.108Z,36.69
2018-03-15T10:51:09.329Z,36.59
2018-03-15T10:52:09.127Z,36.67
2018-03-15T10:53:09.126Z,36.75
2018-03-15T10:54:09.135Z,36.61
2018-03-15T10:55:09.117Z,36.66
2018-03-15T10:56:09.158Z,36.68
2018-03-15T10:57:09.134Z,36.58
2018-03-15T10:58:09.114Z,36.65
2018-03-15T10:59:09.644Z,36.73
2018-03-15T11:00:09.112Z,36.6
2018-03-15T11:01:09.130Z,36.62
2018-03-15T11:02:09.137Z,36.71
2018-03-15T11:03:09.131Z,36.59
2018-03-15T11:04:09.113Z,36.68
2018-03-15T11:05:09.110Z,36.67
2018-03-15T11:06:09.123Z,36.61
2018-03-15T11:07:09.741Z,36.65
2018-03-15T11:08:09.115Z,36.69
2018-03-15T11:09:09.121Z,36.61
2018-03-15T11:10:09.138Z,36.67
2018-03-15T11:11:09.110Z,36.69
2018-03-15T11:12:09.240Z,36.61
2018-03-15T11:13:09.124Z,36.7
2018-03-15T11:14:09.111Z,36.7
2018-03-15T11:15:09.678Z,36.6
2018-03-15T11:16:09.109Z,36.66
2018-03-15T11:17:09.118Z,36.69
2018-03-15T11:18:09.173Z,36.64
2018-03-15T11:19:09.114Z,36.66
2018-03-15T11:20:09.095Z,36.66
2018-03-15T11:21:09.101Z,36.59
2018-03-15T11:22:09.126Z,36.67
2018-03-15T11:23:10.150Z,36.74
2018-03-15T11:24:09.138Z,36.63
2018-03-15T11:25:09.112Z,36.69
2018-03-15T11:26:09.116Z,36.7
2018-03-15T11:27:09.123Z,36.6
2018-03-15T11:28:09.121Z,36.67
2018-03-15T11:29:09.112Z,36.69
2018-03-15T11:30:09.457Z,36.61
2018-03-15T11:31:09.134Z,36.62
2018-03-15T11:32:09.156Z,36.7
2018-03-15T11:33:09.120Z,36.59
2018-03-15T11:34:09.145Z,36.67
2018-03-15T11:35:09.113Z,36.74
2018-03-15T11:36:09.122Z,36.66
2018-03-15T11:37:09.110Z,36.68
2018-03-15T11:38:09.654Z,36.69
2018-03-15T11:39:09.136Z,36.64
2018-03-15T11:40:09.127Z,36.71
2018-03-15T11:41:09.116Z,36.73
2018-03-15T11:42:09.118Z,36.65
2018-03-15T11:43:09.184Z,36.7
2018-03-15T11:44:09.157Z,36.66
2018-03-15T11:45:09.086Z,36.63
2018-03-15T11:46:09.764Z,36.69
2018-03-15T11:47:09.165Z,36.68
2018-03-15T11:48:09.158Z,36.61
2018-03-15T11:49:09.146Z,36.64
2018-03-15T11:50:09.134Z,36.67
2018-03-15T11:51:09.111Z,36.62
2018-03-15T11:52:09.124Z,36.64
2018-03-15T11:53:09.191Z,36.75
2018-03-15T11:54:09.141Z,36.62
2018-03-15T11:55:09.095Z,36.69
2018-03-15T11:56:09.238Z,36.69
2018-03-15T11:57:09.118Z,36.64
2018-03-15T11:58:09.116Z,36.69
2018-03-15T11:59:09.124Z,36.72
2018-03-15T12:00:09.163Z,36.65
2018-03-15T12:01:09.729Z,36.64
2018-03-15T12:02:09.103Z,36.67
2018-03-15T12:03:09.143Z,36.61
2018-03-15T12:04:09.126Z,36.68
2018-03-15T12:05:09.127Z,36.64
2018-03-15T12:06:09.115Z,36.61
2018-03-15T12:07:09.112Z,36.7
2018-03-15T12:08:09.124Z,36.66
2018-03-15T12:09:09.977Z,36.64
2018-03-15T12:10:09.134Z,36.7
2018-03-15T12:11:09.101Z,36.68
2018-03-15T12:12:09.116Z,36.63
2018-03-15T12:13:09.086Z,36.63
2018-03-15T12:14:09.133Z,36.68
2018-03-15T12:15:09.080Z,36.61
2018-03-15T12:16:09.063Z,36.68
2018-03-15T12:17:09.181Z,36.62
2018-03-15T12:18:09.253Z,36.57
2018-03-15T12:19:09.074Z,36.67
2018-03-15T12:20:09.124Z,36.69
2018-03-15T12:21:09.121Z,36.58
2018-03-15T12:22:09.098Z,36.65
2018-03-15T12:23:09.142Z,36.68
2018-03-15T12:24:09.094Z,36.57
2018-03-15T12:25:09.097Z,36.67
2018-03-15T12:26:09.109Z,36.75
2018-03-15T12:27:09.103Z,36.64
2018-03-15T12:28:09.100Z,36.67
2018-03-15T12:29:09.104Z,36.71
2018-03-15T12:30:09.094Z,36.69
2018-03-15T12:31:09.181Z,36.68
2018-03-15T12:32:09.220Z,36.72
2018-03-15T12:33:09.077Z,36.62
2018-03-15T12:34:09.067Z,36.68
2018-03-15T12:35:09.090Z,36.68
2018-03-15T12:36:09.079Z,36.66
2018-03-15T12:37:09.084Z,36.72
2018-03-15T12:38:09.077Z,36.81
2018-03-15T12:39:09.088Z,36.64
2018-03-15T12:40:09.093Z,36.71
2018-03-15T12:41:09.102Z,36.67
2018-03-15T12:42:09.096Z,36.63
2018-03-15T12:43:09.062Z,36.64
2018-03-15T12:44:09.082Z,36.71
2018-03-15T12:45:09.116Z,36.66
2018-03-15T12:46:09.059Z,36.72
2018-03-15T12:47:09.061Z,36.71
2018-03-15T12:48:09.107Z,36.66
2018-03-15T12:49:09.113Z,36.71
2018-03-15T12:50:09.073Z,36.7
2018-03-15T12:51:09.058Z,36.64
2018-03-15T12:52:09.115Z,36.72
2018-03-15T12:53:09.097Z,36.81
2018-03-15T12:54:09.063Z,36.68
2018-03-15T12:55:09.101Z,36.67